createdAt,value
2023-03-15T00:01:39.977Z,20.35
2023-03-15T00:06:46.906Z,20.71
2023-03-15T00:11:53.469Z,20.71
2023-03-15T00:17:00.112Z,20.71
2023-03-15T00:22:06.526Z,21.07
2023-03-15T00:27:13.390Z,4.64
2023-03-15T00:32:19.647Z,18.21
2023-03-15T00:37:26.495Z,25.71
2023-03-15T00:42:35.911Z,15.00
2023-03-15T00:47:43.067Z,21.07
2023-03-15T00:52:49.425Z,21.07
2023-03-15T00:57:56.142Z,22.14
2023-03-15T01:03:02.205Z,21.07
2023-03-15T01:08:08.776Z,17.86
2023-03-15T01:13:15.238Z,18.57
2023-03-15T01:18:21.856Z,21.78
2023-03-15T01:23:28.456Z,20.00
2023-03-15T01:28:35.298Z,18.93
2023-03-15T01:33:42.833Z,23.21
2023-03-15T01:38:49.536Z,20.00
2023-03-15T01:43:55.992Z,21.43
2023-03-15T01:49:02.760Z,19.64
2023-03-15T01:54:09.289Z,20.35
2023-03-15T01:59:15.829Z,24.64
2023-03-15T02:04:22.360Z,21.43
2023-03-15T02:09:29.454Z,17.14
2023-03-15T02:14:35.898Z,21.07
2023-03-15T02:19:42.965Z,16.07
2023-03-15T02:24:49.357Z,25.71
2023-03-15T02:29:56.089Z,18.93
2023-03-15T02:35:02.826Z,21.07
2023-03-15T02:40:09.519Z,26.43
2023-03-15T02:45:15.989Z,23.93
2023-03-15T02:50:22.640Z,21.07
2023-03-15T02:55:29.109Z,24.64
2023-03-15T03:00:36.014Z,17.50
2023-03-15T03:05:43.205Z,20.00
2023-03-15T03:10:49.954Z,22.14
2023-03-15T03:15:56.433Z,16.07
2023-03-15T03:21:04.541Z,27.50
2023-03-15T03:26:10.839Z,20.35
2023-03-15T03:31:17.974Z,22.50
2023-03-15T03:36:24.324Z,22.50
2023-03-15T03:41:31.199Z,20.35
2023-03-15T03:46:39.683Z,20.35
2023-03-15T03:51:46.339Z,22.50
2023-03-15T03:56:53.104Z,30.71
2023-03-15T04:01:59.882Z,19.64
2023-03-15T04:07:08.272Z,24.28
2023-03-15T04:12:14.927Z,20.71
2023-03-15T04:17:21.361Z,32.14
2023-03-15T04:22:28.115Z,35.00
2023-03-15T04:27:34.728Z,22.14
2023-03-15T04:32:41.386Z,31.78
2023-03-15T04:37:47.730Z,23.93
2023-03-15T04:42:54.668Z,32.85
2023-03-15T04:48:01.223Z,22.85
2023-03-15T04:53:07.992Z,24.28
2023-03-15T04:58:14.382Z,21.43
2023-03-15T05:03:21.335Z,18.21
2023-03-15T05:08:28.240Z,20.71
2023-03-15T05:13:34.889Z,21.07
2023-03-15T05:18:41.220Z,23.57
2023-03-15T05:23:48.037Z,21.43
2023-03-15T05:28:54.671Z,23.93
2023-03-15T05:34:01.239Z,18.57
2023-03-15T05:39:07.848Z,15.36
2023-03-15T05:44:16.538Z,17.50
2023-03-15T05:49:23.249Z,21.07
2023-03-15T05:54:29.776Z,25.00
2023-03-15T05:59:36.319Z,17.86
2023-03-15T06:04:43.076Z,6.43
2023-03-15T06:09:49.697Z,21.43
2023-03-15T06:14:57.383Z,21.43
2023-03-15T06:20:03.914Z,20.35
2023-03-15T06:25:11.838Z,17.86
2023-03-15T06:30:18.240Z,19.64
2023-03-15T06:35:25.914Z,21.07
2023-03-15T06:40:32.475Z,21.07
2023-03-15T06:45:40.096Z,25.00
2023-03-15T06:50:47.704Z,22.50
2023-03-15T06:55:52.240Z,24.64
2023-03-15T07:00:58.814Z,28.21
2023-03-15T07:06:05.400Z,21.43
2023-03-15T07:11:11.913Z,20.35
2023-03-15T07:16:18.617Z,21.07
2023-03-15T07:21:25.056Z,24.64
2023-03-15T07:26:31.852Z,21.07
2023-03-15T07:31:39.137Z,18.57
2023-03-15T07:36:45.847Z,24.64
2023-03-15T07:41:53.276Z,21.07
2023-03-15T07:47:00.207Z,31.43
2023-03-15T07:52:06.458Z,20.71
2023-03-15T07:57:13.437Z,17.86
2023-03-15T08:02:20.112Z,21.43
2023-03-15T08:07:26.735Z,21.43
2023-03-15T08:12:34.012Z,21.07
2023-03-15T08:17:40.908Z,20.71
2023-03-15T08:22:47.229Z,21.07
2023-03-15T08:27:53.788Z,21.07
2023-03-15T08:33:01.183Z,20.71
2023-03-15T08:38:08.875Z,21.07
2023-03-15T08:43:15.413Z,24.64
2023-03-15T08:48:22.219Z,17.86
2023-03-15T08:53:28.634Z,21.07
2023-03-15T08:58:36.673Z,17.50
2023-03-15T09:03:43.209Z,23.21
2023-03-15T09:08:50.011Z,17.14
2023-03-15T09:14:03.161Z,18.57
2023-03-15T09:19:00.332Z,15.36
2023-03-15T09:24:07.281Z,20.00
2023-03-15T09:29:14.010Z,19.64
2023-03-15T09:34:21.868Z,13.21
2023-03-15T09:39:26.699Z,21.43
2023-03-15T09:44:34.280Z,9.64
2023-03-15T09:49:40.994Z,20.71
2023-03-15T09:54:47.952Z,21.07
2023-03-15T09:59:54.478Z,15.36
2023-03-15T10:05:01.479Z,3.57
2023-03-15T10:10:08.696Z,15.36
2023-03-15T10:15:17.001Z,12.14
2023-03-15T10:20:23.572Z,11.43
2023-03-15T10:25:30.206Z,21.43
2023-03-15T10:30:38.539Z,12.86
2023-03-15T10:35:46.817Z,17.50
2023-03-15T10:40:53.243Z,18.21
2023-03-15T10:45:59.919Z,7.86
2023-03-15T10:51:06.423Z,20.00
2023-03-15T10:56:14.359Z,13.80
2023-03-15T11:01:20.780Z,7.14
2023-03-15T11:06:27.666Z,7.99
2023-03-15T11:11:34.006Z,4.36
2023-03-15T11:16:40.692Z,4.36
2023-03-15T11:21:47.139Z,2.50
2023-03-15T11:26:56.107Z,10.17
2023-03-15T11:32:02.485Z,3.90
2023-03-15T11:37:11.604Z,5.00
2023-03-15T11:42:17.342Z,0.00
2023-03-15T11:47:25.124Z,1.88
2023-03-15T11:52:32.551Z,0.00
2023-03-15T11:57:39.171Z,3.33
2023-03-15T12:02:45.292Z,3.01
2023-03-15T12:07:51.991Z,8.82
2023-03-15T12:12:59.279Z,8.58
2023-03-15T12:18:07.996Z,1.34
2023-03-15T12:23:14.082Z,4.86
2023-03-15T12:28:20.482Z,1.24
2023-03-15T12:33:26.690Z,3.14
2023-03-15T12:38:33.605Z,0.00
2023-03-15T12:43:39.887Z,0.00
2023-03-15T12:48:46.224Z,0.00
2023-03-15T12:53:52.443Z,1.43
2023-03-15T12:58:59.117Z,9.64
2023-03-15T13:04:06.664Z,4.64
2023-03-15T13:09:13.213Z,4.64
2023-03-15T13:14:20.353Z,3.57
2023-03-15T13:19:27.256Z,7.50
2023-03-15T13:24:35.288Z,3.57
2023-03-15T13:29:42.071Z,11.07
2023-03-15T13:34:49.656Z,6.20
2023-03-15T13:39:58.302Z,3.93
2023-03-15T13:45:05.292Z,4.64
2023-03-15T13:50:12.116Z,5.71
2023-03-15T13:55:18.135Z,0.00
2023-03-15T14:00:25.094Z,0.00
2023-03-15T14:05:31.153Z,1.43
2023-03-15T14:10:37.783Z,0.00
2023-03-15T14:15:44.016Z,2.86
2023-03-15T14:20:50.751Z,1.07
2023-03-15T14:25:56.836Z,10.71
2023-03-15T14:31:03.243Z,1.43
2023-03-15T14:36:10.207Z,1.07
2023-03-15T14:41:15.824Z,5.00
2023-03-15T14:46:23.452Z,6.07
2023-03-15T14:51:29.844Z,4.64
2023-03-15T14:56:36.163Z,7.86
2023-03-15T15:01:46.492Z,0.00
2023-03-15T15:06:49.971Z,0.00
2023-03-15T15:11:56.884Z,1.07
2023-03-15T15:17:03.090Z,0.00
2023-03-15T15:22:09.752Z,11.07
2023-03-15T15:27:15.932Z,6.78
2023-03-15T15:32:22.742Z,2.86
2023-03-15T15:37:28.986Z,1.07
2023-03-15T15:42:35.521Z,0.00
2023-03-15T15:47:41.749Z,1.07
2023-03-15T15:52:48.368Z,0.00
2023-03-15T15:57:56.670Z,3.93
2023-03-15T16:03:03.486Z,5.71
2023-03-15T16:08:10.856Z,9.88
2023-03-15T16:13:17.118Z,0.00
2023-03-15T16:18:24.330Z,2.86
2023-03-15T16:23:30.962Z,0.36
2023-03-15T16:28:37.071Z,3.93
2023-03-15T16:33:44.392Z,13.80
2023-03-15T16:38:51.656Z,0.00
2023-03-15T16:43:58.264Z,8.24
2023-03-15T16:49:04.497Z,5.37
2023-03-15T16:54:21.695Z,3.93
2023-03-15T16:59:17.141Z,13.68
2023-03-15T17:04:24.594Z,6.02
2023-03-15T17:09:31.209Z,21.07
2023-03-15T17:14:37.488Z,17.00
2023-03-15T17:19:44.113Z,6.78
2023-03-15T17:24:50.319Z,11.07
2023-03-15T17:29:56.686Z,14.64
2023-03-15T17:35:03.236Z,13.57
2023-03-15T17:40:09.228Z,25.71
2023-03-15T17:45:15.969Z,22.50
2023-03-15T17:50:40.066Z,21.07
2023-03-15T17:55:26.557Z,8.57
2023-03-15T18:00:32.723Z,27.50
2023-03-15T18:05:39.019Z,20.35
2023-03-15T18:10:45.438Z,21.07
2023-03-15T18:15:58.122Z,18.57
2023-03-15T18:20:54.485Z,22.50
2023-03-15T18:26:02.084Z,20.71
2023-03-15T18:31:08.236Z,20.35
2023-03-15T18:36:14.745Z,27.85
2023-03-15T18:41:21.057Z,20.00
2023-03-15T18:46:27.078Z,22.14
2023-03-15T18:51:32.883Z,20.71
2023-03-15T18:56:39.490Z,21.07
2023-03-15T19:01:45.725Z,23.21
2023-03-15T19:06:52.406Z,21.07
2023-03-15T19:11:58.456Z,20.71
2023-03-15T19:17:05.041Z,18.93
2023-03-15T19:22:11.090Z,20.00
2023-03-15T19:27:17.597Z,21.07
2023-03-15T19:32:23.806Z,23.57
2023-03-15T19:37:31.194Z,31.07
2023-03-15T19:42:37.504Z,15.00
2023-03-15T19:47:45.069Z,24.64
2023-03-15T19:52:51.490Z,27.85
2023-03-15T19:57:58.896Z,16.43
2023-03-15T20:03:05.066Z,21.07
2023-03-15T20:08:11.737Z,25.00
2023-03-15T20:13:18.245Z,27.14
2023-03-15T20:18:25.078Z,23.57
2023-03-15T20:23:32.481Z,20.35
2023-03-15T20:28:38.962Z,21.43
2023-03-15T20:33:45.781Z,20.71
2023-03-15T20:38:53.334Z,33.92
2023-03-15T20:43:59.643Z,28.93
2023-03-15T20:49:08.048Z,24.64
2023-03-15T20:54:14.296Z,21.43
2023-03-15T20:59:21.059Z,33.92
2023-03-15T21:04:27.196Z,36.78
2023-03-15T21:09:33.848Z,20.71
2023-03-15T21:14:40.117Z,28.93
2023-03-15T21:19:47.702Z,25.71
2023-03-15T21:24:56.185Z,18.21
2023-03-15T21:30:00.117Z,22.14
2023-03-15T21:35:06.210Z,23.21
2023-03-15T21:40:12.844Z,21.07
2023-03-15T21:45:20.297Z,21.43
2023-03-15T21:50:27.263Z,21.43
2023-03-15T21:55:32.764Z,30.35
2023-03-15T22:00:39.151Z,21.43
2023-03-15T22:05:46.226Z,21.07
2023-03-15T22:10:52.978Z,21.43
2023-03-15T22:15:59.128Z,22.14
2023-03-15T22:21:05.562Z,26.43
2023-03-15T22:26:11.693Z,23.21
2023-03-15T22:31:18.526Z,27.50
2023-03-15T22:36:25.845Z,20.35
2023-03-15T22:41:32.582Z,21.07
2023-03-15T22:46:39.639Z,30.35
2023-03-15T22:51:46.356Z,21.07
2023-03-15T22:56:52.513Z,25.00
2023-03-15T23:01:58.935Z,30.35
2023-03-15T23:07:05.246Z,31.78
2023-03-15T23:12:11.748Z,25.00
2023-03-15T23:17:18.046Z,23.57
2023-03-15T23:22:24.679Z,22.50
2023-03-15T23:27:30.868Z,19.64
2023-03-15T23:32:38.594Z,24.28
2023-03-15T23:37:44.958Z,21.07
2023-03-15T23:42:51.660Z,14.28
2023-03-15T23:47:57.896Z,23.93
2023-03-15T23:53:04.676Z,20.71
2023-03-15T23:58:12.064Z,22.50
